NCAR-RAP Real-Time Weather Data

Output produced by METARs form (08 May 2021  15:57 UTC)
found at http://weather.rap.ucar.edu/surface/
 
KBFF 081553Z AUTO 31018G31KT 10SM CLR 17/07 A2972 RMK AO2 PK WND 31034/1524 SLP030 T01720067
KBFF 081453Z AUTO 29006KT 10SM CLR 14/08 A2972 RMK AO2 SLP030 T01390078 53015
KBFF 081353Z AUTO 05004KT 10SM CLR 11/07 A2970 RMK AO2 SLP025 T01110067
KBFF 081253Z AUTO 12006KT 10SM CLR 09/06 A2968 RMK AO2 SLP020 T00940061
KBFF 081153Z AUTO 11007KT 10SM CLR 09/06 A2967 RMK AO2 SLP013 T00890061 10150 20089 50002
KBFF 081053Z AUTO 09007KT 10SM FEW019 10/06 A2969 RMK AO2 SLP017 T01000061
KBFF 080953Z AUTO 10015KT 10SM CLR 11/07 A2965 RMK AO2 SLP004 T01060067
KBFF 080853Z AUTO 10011KT 10SM CLR 11/07 A2966 RMK AO2 SLP006 T01110072 58024
KBFF 080753Z AUTO 11015KT 10SM CLR 12/08 A2969 RMK AO2 SLP017 T01220078
KBFF 080653Z AUTO 11013KT 10SM CLR 13/08 A2972 RMK AO2 PK WND 13029/0621 SLP026 T01330078 402560039
KBFF 080553Z AUTO 14017G27KT 10SM CLR 15/08 A2974 RMK AO2 PK WND 13027/0551 SLP035 T01500078 10233 20150 58007
KBFF 080453Z AUTO 13015KT 10SM CLR 16/08 A2976 RMK AO2 PK WND 14029/0414 SLP043 T01560078
KBFF 080353Z AUTO 13015G24KT 10SM CLR 17/08 A2978 RMK AO2 PK WND 12029/0329 SLP049 T01720083
KBFF 080253Z AUTO 13017G26KT 10SM CLR 19/08 A2977 RMK AO2 PK WND 14028/0239 SLP047 T01890083 58012